createdAt,value
2023-03-31T00:00:04.273Z,0.60
2023-03-31T00:01:04.296Z,0.50
2023-03-31T00:02:04.272Z,0.50
2023-03-31T00:03:04.409Z,0.80
2023-03-31T00:04:04.544Z,0.50
2023-03-31T00:05:04.329Z,0.50
2023-03-31T00:06:04.629Z,0.70
2023-03-31T00:07:04.286Z,0.60
2023-03-31T00:08:04.270Z,0.60
2023-03-31T00:09:04.285Z,0.50
2023-03-31T00:10:17.264Z,0.50
2023-03-31T00:11:04.290Z,0.50
2023-03-31T00:12:04.275Z,0.60
2023-03-31T00:13:04.290Z,0.50
2023-03-31T00:14:04.270Z,0.60
2023-03-31T00:15:04.274Z,0.60
2023-03-31T00:16:04.507Z,0.50
2023-03-31T00:17:04.373Z,0.60
2023-03-31T00:18:04.324Z,0.50
2023-03-31T00:19:04.274Z,0.60
2023-03-31T00:20:04.266Z,0.50
2023-03-31T00:21:04.285Z,0.70
2023-03-31T00:22:04.290Z,0.60
2023-03-31T00:23:04.272Z,0.60
2023-03-31T00:24:04.279Z,0.60
2023-03-31T00:25:04.273Z,0.50
2023-03-31T00:26:04.498Z,0.60
2023-03-31T00:27:04.284Z,0.60
2023-03-31T00:28:04.270Z,0.50
2023-03-31T00:29:04.282Z,0.60
2023-03-31T00:30:04.268Z,0.70
2023-03-31T00:31:04.373Z,0.70
2023-03-31T00:32:04.286Z,0.60
2023-03-31T00:33:04.343Z,0.60
2023-03-31T00:34:04.263Z,0.60
2023-03-31T00:35:04.266Z,0.70
2023-03-31T00:36:04.722Z,0.60
2023-03-31T00:37:04.267Z,0.70
2023-03-31T00:38:04.307Z,0.60
2023-03-31T00:39:04.272Z,0.70
2023-03-31T00:40:04.263Z,0.60
2023-03-31T00:41:04.266Z,0.80
2023-03-31T00:42:04.256Z,0.60
2023-03-31T00:43:04.264Z,0.60
2023-03-31T00:44:04.265Z,0.60
2023-03-31T00:45:04.278Z,0.80
2023-03-31T00:46:04.603Z,0.50
2023-03-31T00:47:04.281Z,0.60
2023-03-31T00:48:04.340Z,0.60
2023-03-31T00:49:04.280Z,0.60
2023-03-31T00:50:04.255Z,0.60
2023-03-31T00:51:04.262Z,0.60
2023-03-31T00:52:04.252Z,0.70
2023-03-31T00:53:04.261Z,0.70
2023-03-31T00:54:04.390Z,0.60
2023-03-31T00:55:04.295Z,0.80
2023-03-31T00:56:04.585Z,0.70
2023-03-31T00:57:04.323Z,0.60
2023-03-31T00:58:04.263Z,0.60
2023-03-31T00:59:04.360Z,0.60
2023-03-31T01:00:04.356Z,0.60
2023-03-31T01:01:04.360Z,0.70
2023-03-31T01:02:04.321Z,0.60
2023-03-31T01:03:04.355Z,0.60
2023-03-31T01:04:04.398Z,0.60
2023-03-31T01:05:04.262Z,0.60
2023-03-31T01:06:04.529Z,0.70
2023-03-31T01:07:04.258Z,0.70
2023-03-31T01:08:04.250Z,0.60
2023-03-31T01:09:04.258Z,0.50
2023-03-31T01:10:04.409Z,0.60
2023-03-31T01:11:04.256Z,0.70
2023-03-31T01:12:04.251Z,0.90
2023-03-31T01:13:04.261Z,0.50
2023-03-31T01:14:04.266Z,0.70
2023-03-31T01:15:04.261Z,0.60
2023-03-31T01:16:04.696Z,0.70
2023-03-31T01:17:04.359Z,0.70
2023-03-31T01:18:04.303Z,0.60
2023-03-31T01:19:04.259Z,0.70
2023-03-31T01:20:04.249Z,0.50
2023-03-31T01:21:04.265Z,0.60
2023-03-31T01:22:04.249Z,0.70
2023-03-31T01:23:04.254Z,0.70
2023-03-31T01:24:04.252Z,0.70
2023-03-31T01:25:04.262Z,0.60
2023-03-31T01:26:04.542Z,0.80
2023-03-31T01:27:04.258Z,0.70
2023-03-31T01:28:04.255Z,0.70
2023-03-31T01:29:04.287Z,0.60
2023-03-31T01:30:04.258Z,0.60
2023-03-31T01:31:04.275Z,0.70
2023-03-31T01:32:04.246Z,0.70
2023-03-31T01:33:04.292Z,0.70
2023-03-31T01:34:04.265Z,0.60
2023-03-31T01:35:04.252Z,0.60
2023-03-31T01:36:04.436Z,0.60
2023-03-31T01:37:04.259Z,0.60
2023-03-31T01:38:04.246Z,0.70
2023-03-31T01:39:04.250Z,0.80
2023-03-31T01:40:04.244Z,0.70
2023-03-31T01:41:04.254Z,0.70
2023-03-31T01:42:04.271Z,0.70
2023-03-31T01:43:04.253Z,0.80
2023-03-31T01:44:04.247Z,0.60
2023-03-31T01:45:04.252Z,0.80
2023-03-31T01:46:04.406Z,0.60
2023-03-31T01:47:04.255Z,0.60
2023-03-31T01:48:04.275Z,0.60
2023-03-31T01:49:04.257Z,0.70
2023-03-31T01:50:04.242Z,0.70
2023-03-31T01:51:04.247Z,0.70
2023-03-31T01:52:04.352Z,0.70
2023-03-31T01:53:04.268Z,0.70
2023-03-31T01:54:04.248Z,0.90
2023-03-31T01:55:04.249Z,0.70
2023-03-31T01:56:04.582Z,0.80
2023-03-31T01:57:04.282Z,0.70
2023-03-31T01:58:04.271Z,0.60
2023-03-31T01:59:04.244Z,0.70
2023-03-31T02:00:04.252Z,0.70
2023-03-31T02:01:04.252Z,0.70
2023-03-31T02:02:04.251Z,0.70
2023-03-31T02:03:04.404Z,0.70
2023-03-31T02:04:04.313Z,0.80
2023-03-31T02:05:04.245Z,0.70
2023-03-31T02:06:04.586Z,0.70
2023-03-31T02:07:04.252Z,0.70
2023-03-31T02:08:04.241Z,0.80
2023-03-31T02:09:04.245Z,0.70
2023-03-31T02:10:04.290Z,0.80
2023-03-31T02:11:04.244Z,0.70
2023-03-31T02:12:04.252Z,0.80
2023-03-31T02:13:04.248Z,0.80
2023-03-31T02:14:04.267Z,0.80
2023-03-31T02:15:04.244Z,0.60
2023-03-31T02:16:04.481Z,0.80
2023-03-31T02:17:04.241Z,0.60
2023-03-31T02:18:04.273Z,0.70
2023-03-31T02:19:04.241Z,0.80
2023-03-31T02:20:04.237Z,0.80
2023-03-31T02:21:04.245Z,0.70
2023-03-31T02:22:04.239Z,0.80
2023-03-31T02:23:04.238Z,0.80
2023-03-31T02:24:04.238Z,0.70
2023-03-31T02:25:04.238Z,0.90
2023-03-31T02:26:04.409Z,0.80
2023-03-31T02:27:04.237Z,0.80
2023-03-31T02:28:04.231Z,0.70
2023-03-31T02:29:04.247Z,0.80
2023-03-31T02:30:04.260Z,0.70
2023-03-31T02:31:04.239Z,0.60
2023-03-31T02:32:04.265Z,0.80
2023-03-31T02:33:04.379Z,0.70
2023-03-31T02:34:04.228Z,0.90
2023-03-31T02:35:04.238Z,0.70
2023-03-31T02:36:04.724Z,0.80
2023-03-31T02:37:04.251Z,0.80
2023-03-31T02:38:04.229Z,0.80
2023-03-31T02:39:04.250Z,0.70
2023-03-31T02:40:04.226Z,0.80
2023-03-31T02:41:04.240Z,0.80
2023-03-31T02:42:04.230Z,0.80
2023-03-31T02:43:04.232Z,0.90
2023-03-31T02:44:04.241Z,0.60
2023-03-31T02:45:04.268Z,0.80
2023-03-31T02:46:04.475Z,0.90
2023-03-31T02:47:04.242Z,0.90
2023-03-31T02:48:04.248Z,0.70
2023-03-31T02:49:04.247Z,0.70
2023-03-31T02:50:04.233Z,0.70
2023-03-31T02:51:04.248Z,0.80
2023-03-31T02:52:04.224Z,0.70
2023-03-31T02:53:04.232Z,0.80
2023-03-31T02:54:04.225Z,0.90
2023-03-31T02:55:04.232Z,0.90
2023-03-31T02:56:04.527Z,0.70
2023-03-31T02:57:04.260Z,0.80
2023-03-31T02:58:04.226Z,0.70
2023-03-31T02:59:04.231Z,0.80
2023-03-31T03:00:04.224Z,0.80
2023-03-31T03:01:04.239Z,0.70
2023-03-31T03:02:04.266Z,0.70
2023-03-31T03:03:04.315Z,0.90
2023-03-31T03:04:04.238Z,0.70
2023-03-31T03:05:04.231Z,0.80
2023-03-31T03:06:05.392Z,0.90
2023-03-31T03:07:04.228Z,0.80
2023-03-31T03:08:04.230Z,0.80
2023-03-31T03:09:04.229Z,0.80
2023-03-31T03:10:04.386Z,0.80
2023-03-31T03:11:04.236Z,0.80
2023-03-31T03:12:04.226Z,0.80
2023-03-31T03:13:04.233Z,0.90
2023-03-31T03:14:04.220Z,0.70
2023-03-31T03:15:04.227Z,0.80
2023-03-31T03:16:04.445Z,0.60
2023-03-31T03:17:04.226Z,0.90
2023-03-31T03:18:04.281Z,1.00
2023-03-31T03:19:04.226Z,0.90
2023-03-31T03:20:04.217Z,0.90
2023-03-31T03:21:04.228Z,0.80
2023-03-31T03:22:04.224Z,0.80
2023-03-31T03:23:04.239Z,1.00
2023-03-31T03:24:04.226Z,0.90
2023-03-31T03:25:04.233Z,0.80
2023-03-31T03:26:04.363Z,0.90
2023-03-31T03:27:04.230Z,1.00
2023-03-31T03:28:04.216Z,0.80
2023-03-31T03:29:04.228Z,0.90
2023-03-31T03:30:04.220Z,0.90
2023-03-31T03:31:04.273Z,0.90
2023-03-31T03:32:04.215Z,0.80
2023-03-31T03:33:04.239Z,0.80
2023-03-31T03:34:04.249Z,0.80
2023-03-31T03:35:04.216Z,0.90
2023-03-31T03:36:04.524Z,0.80
2023-03-31T03:37:04.213Z,0.90
2023-03-31T03:38:04.224Z,1.00
2023-03-31T03:39:04.214Z,0.80
2023-03-31T03:40:04.378Z,1.10
2023-03-31T03:41:04.218Z,1.00
2023-03-31T03:42:04.221Z,1.00
2023-03-31T03:43:04.222Z,1.00
2023-03-31T03:44:04.222Z,1.00
2023-03-31T03:45:04.215Z,0.90
2023-03-31T03:46:04.465Z,0.90
2023-03-31T03:47:04.211Z,0.90
2023-03-31T03:48:04.260Z,0.80
2023-03-31T03:49:04.223Z,0.90
2023-03-31T03:50:04.261Z,0.80
2023-03-31T03:51:04.216Z,1.00
2023-03-31T03:52:04.223Z,0.80
2023-03-31T03:53:04.212Z,0.90
2023-03-31T03:54:04.217Z,0.90
2023-03-31T03:55:04.217Z,0.90
2023-03-31T03:56:04.497Z,1.00
2023-03-31T03:57:04.250Z,1.00
2023-03-31T03:58:04.221Z,1.00
2023-03-31T03:59:04.205Z,0.90
2023-03-31T04:00:04.219Z,1.00
2023-03-31T04:01:04.203Z,1.00
2023-03-31T04:02:04.280Z,1.10
2023-03-31T04:03:04.254Z,0.90
2023-03-31T04:04:04.215Z,0.90
2023-03-31T04:05:04.282Z,1.10
2023-03-31T04:06:04.612Z,0.90
2023-03-31T04:07:04.208Z,0.80
2023-03-31T04:08:04.206Z,1.00
2023-03-31T04:09:04.205Z,0.90
2023-03-31T04:10:04.256Z,1.20
2023-03-31T04:11:04.197Z,0.90
2023-03-31T04:12:04.205Z,1.00
2023-03-31T04:13:04.199Z,0.90
2023-03-31T04:14:04.213Z,0.90
2023-03-31T04:15:04.197Z,0.90
2023-03-31T04:16:04.567Z,0.80
2023-03-31T04:17:04.200Z,1.00
2023-03-31T04:18:04.236Z,1.00
2023-03-31T04:19:04.197Z,0.90
2023-03-31T04:20:04.208Z,0.80
2023-03-31T04:21:04.297Z,1.00
2023-03-31T04:22:04.230Z,1.00
2023-03-31T04:23:04.195Z,0.90
2023-03-31T04:24:04.209Z,0.80
2023-03-31T04:25:04.194Z,0.90
2023-03-31T04:26:04.470Z,1.10
2023-03-31T04:27:04.191Z,0.90
2023-03-31T04:28:04.198Z,0.70
2023-03-31T04:29:04.194Z,1.00
2023-03-31T04:30:04.215Z,0.80
2023-03-31T04:31:04.189Z,0.80
2023-03-31T04:32:04.267Z,0.90
2023-03-31T04:33:04.389Z,0.90
2023-03-31T04:34:04.196Z,0.90
2023-03-31T04:35:04.191Z,0.80
2023-03-31T04:36:04.689Z,0.80
2023-03-31T04:37:04.195Z,0.80
2023-03-31T04:38:04.217Z,0.90
2023-03-31T04:39:04.186Z,0.90
2023-03-31T04:40:04.196Z,0.90
2023-03-31T04:41:04.186Z,0.80
2023-03-31T04:42:04.193Z,0.90
2023-03-31T04:43:04.189Z,0.80
2023-03-31T04:44:04.190Z,1.00
2023-03-31T04:45:04.202Z,0.90
2023-03-31T04:46:04.403Z,0.90
2023-03-31T04:47:04.186Z,0.70
2023-03-31T04:48:04.259Z,0.80
2023-03-31T04:49:04.192Z,0.70
2023-03-31T04:50:04.196Z,0.80
2023-03-31T04:51:04.186Z,0.90
2023-03-31T04:52:04.186Z,0.80
2023-03-31T04:53:04.196Z,0.80
2023-03-31T04:54:04.220Z,0.80
2023-03-31T04:55:04.195Z,0.70
2023-03-31T04:56:04.540Z,0.80
2023-03-31T04:57:04.212Z,0.80
2023-03-31T04:58:04.184Z,0.80
2023-03-31T04:59:04.179Z,0.90
2023-03-31T05:00:04.186Z,1.10
2023-03-31T05:01:04.198Z,0.80
2023-03-31T05:02:04.332Z,0.70
2023-03-31T05:03:04.299Z,0.70
2023-03-31T05:04:04.186Z,0.80
2023-03-31T05:05:04.179Z,0.70
2023-03-31T05:06:04.600Z,0.70
2023-03-31T05:07:04.179Z,0.80
2023-03-31T05:08:04.196Z,0.70
2023-03-31T05:09:04.190Z,0.70
2023-03-31T05:10:04.212Z,0.90
2023-03-31T05:11:04.180Z,0.80
2023-03-31T05:12:04.186Z,0.70
2023-03-31T05:13:04.176Z,0.80
2023-03-31T05:14:04.185Z,0.60
2023-03-31T05:15:04.178Z,0.70
2023-03-31T05:16:04.786Z,0.80
2023-03-31T05:17:04.197Z,0.80
2023-03-31T05:18:04.217Z,0.90
2023-03-31T05:19:04.175Z,0.80
2023-03-31T05:20:04.182Z,0.80
2023-03-31T05:21:04.176Z,0.80
2023-03-31T05:22:04.182Z,0.80
2023-03-31T05:23:04.173Z,0.70
2023-03-31T05:24:04.182Z,0.80
2023-03-31T05:25:04.176Z,0.90
2023-03-31T05:26:04.518Z,1.00
2023-03-31T05:27:04.173Z,0.90
2023-03-31T05:28:04.190Z,0.90
2023-03-31T05:29:04.179Z,0.80
2023-03-31T05:30:04.483Z,0.90
2023-03-31T05:31:04.176Z,0.90
2023-03-31T05:32:04.318Z,0.80
2023-03-31T05:33:04.234Z,0.80
2023-03-31T05:34:04.184Z,0.80
2023-03-31T05:35:04.171Z,0.70
2023-03-31T05:36:04.669Z,0.70
2023-03-31T05:37:04.170Z,0.90
2023-03-31T05:38:04.177Z,0.80
2023-03-31T05:39:04.168Z,0.80
2023-03-31T05:40:04.182Z,0.90
2023-03-31T05:41:04.171Z,0.80
2023-03-31T05:42:04.209Z,0.80
2023-03-31T05:43:04.167Z,0.70
2023-03-31T05:44:04.176Z,0.70
2023-03-31T05:45:04.166Z,0.80
2023-03-31T05:46:04.578Z,0.70
2023-03-31T05:47:04.167Z,0.80
2023-03-31T05:48:04.226Z,0.80
2023-03-31T05:49:04.167Z,0.90
2023-03-31T05:50:04.173Z,0.90
2023-03-31T05:51:04.167Z,0.80
2023-03-31T05:52:04.173Z,0.60
2023-03-31T05:53:04.178Z,0.80
2023-03-31T05:54:04.174Z,0.80
2023-03-31T05:55:04.186Z,0.70
2023-03-31T05:56:04.358Z,0.70
2023-03-31T05:57:04.275Z,0.80
2023-03-31T05:58:04.199Z,0.70
2023-03-31T05:59:05.246Z,0.80
2023-03-31T06:00:04.170Z,0.90
2023-03-31T06:01:04.297Z,0.70
2023-03-31T06:02:04.195Z,0.90
2023-03-31T06:03:04.237Z,0.60
2023-03-31T06:04:04.229Z,0.70
2023-03-31T06:05:04.165Z,0.60
2023-03-31T06:06:04.169Z,0.90
2023-03-31T06:07:04.166Z,0.70
2023-03-31T06:08:04.171Z,0.60
2023-03-31T06:09:04.164Z,0.70
2023-03-31T06:10:04.190Z,0.80
2023-03-31T06:11:04.475Z,0.70
2023-03-31T06:12:04.170Z,0.80
2023-03-31T06:13:04.411Z,0.70
2023-03-31T06:14:04.200Z,0.70
2023-03-31T06:15:04.164Z,0.90
2023-03-31T06:16:04.193Z,0.90
2023-03-31T06:17:04.162Z,0.70
2023-03-31T06:18:04.213Z,0.80
2023-03-31T06:19:04.163Z,0.70
2023-03-31T06:20:12.912Z,0.90
2023-03-31T06:21:04.465Z,0.70
2023-03-31T06:22:04.188Z,0.70
2023-03-31T06:23:04.161Z,0.60
2023-03-31T06:24:04.177Z,0.70
2023-03-31T06:25:04.162Z,0.80
2023-03-31T06:26:04.169Z,0.60
2023-03-31T06:27:04.189Z,0.80
2023-03-31T06:28:04.169Z,0.80
2023-03-31T06:29:04.341Z,0.70
2023-03-31T06:30:04.192Z,0.70
2023-03-31T06:31:04.289Z,0.80
2023-03-31T06:32:04.234Z,0.90
2023-03-31T06:33:04.214Z,0.50
2023-03-31T06:34:04.182Z,0.60
2023-03-31T06:35:04.177Z,0.60
2023-03-31T06:36:04.371Z,0.60
2023-03-31T06:37:04.161Z,0.60
2023-03-31T06:38:04.179Z,0.60
2023-03-31T06:39:04.162Z,0.70
2023-03-31T06:40:04.189Z,0.50
2023-03-31T06:41:04.458Z,0.50
2023-03-31T06:42:04.186Z,0.70
2023-03-31T06:43:04.501Z,0.60
2023-03-31T06:44:04.179Z,0.60
2023-03-31T06:45:04.161Z,0.60
2023-03-31T06:46:04.287Z,0.60
2023-03-31T06:47:04.175Z,0.50
2023-03-31T06:48:04.227Z,0.50
2023-03-31T06:49:04.173Z,0.60
2023-03-31T06:50:04.170Z,0.60
2023-03-31T06:51:04.187Z,0.60
2023-03-31T06:52:04.176Z,0.50
2023-03-31T06:53:04.165Z,0.50
2023-03-31T06:54:04.174Z,0.60
2023-03-31T06:55:04.164Z,0.60
2023-03-31T06:56:04.363Z,0.50
2023-03-31T06:57:04.226Z,0.60
2023-03-31T06:58:04.173Z,0.50
2023-03-31T06:59:04.169Z,0.50
2023-03-31T07:00:04.173Z,0.50
2023-03-31T07:01:04.365Z,0.60
2023-03-31T07:02:04.265Z,0.60
2023-03-31T07:03:04.251Z,0.40
2023-03-31T07:04:04.171Z,0.40
2023-03-31T07:05:04.167Z,0.70
2023-03-31T07:06:04.175Z,0.50
2023-03-31T07:07:04.177Z,0.60
2023-03-31T07:08:04.171Z,0.50
2023-03-31T07:09:04.167Z,0.50
2023-03-31T07:10:04.325Z,0.60
2023-03-31T07:11:04.814Z,0.50
2023-03-31T07:12:04.173Z,0.50
2023-03-31T07:13:05.731Z,0.50
2023-03-31T07:14:04.172Z,0.50
2023-03-31T07:15:04.163Z,0.50
2023-03-31T07:16:04.336Z,0.60
2023-03-31T07:17:04.166Z,0.60
2023-03-31T07:18:04.242Z,0.40
2023-03-31T07:19:04.170Z,0.50
2023-03-31T07:20:04.171Z,0.50
2023-03-31T07:21:07.185Z,0.60
2023-03-31T07:22:04.186Z,0.50
2023-03-31T07:23:04.173Z,0.60
2023-03-31T07:24:04.174Z,0.60
2023-03-31T07:25:04.169Z,0.50
2023-03-31T07:26:04.171Z,0.50
2023-03-31T07:27:04.164Z,0.60
2023-03-31T07:28:04.205Z,0.60
2023-03-31T07:29:04.165Z,0.60
2023-03-31T07:30:04.172Z,0.60
2023-03-31T07:31:04.359Z,0.60
2023-03-31T07:32:04.210Z,0.70
2023-03-31T07:33:04.209Z,0.60
2023-03-31T07:34:04.205Z,0.60
2023-03-31T07:35:04.163Z,0.70
2023-03-31T07:36:11.871Z,0.70
2023-03-31T07:37:04.183Z,0.80
2023-03-31T07:38:04.176Z,0.70
2023-03-31T07:39:04.168Z,0.80
2023-03-31T07:40:04.174Z,0.90
2023-03-31T07:41:09.124Z,0.70
2023-03-31T07:42:04.183Z,0.70
2023-03-31T07:43:04.175Z,0.80
2023-03-31T07:44:04.201Z,0.70
2023-03-31T07:45:04.165Z,0.60
2023-03-31T07:46:04.329Z,0.70
2023-03-31T07:47:04.165Z,0.70
2023-03-31T07:48:04.219Z,0.60
2023-03-31T07:49:04.186Z,0.70
2023-03-31T07:50:04.200Z,0.70
2023-03-31T07:51:04.504Z,0.60
2023-03-31T07:52:04.185Z,0.70
2023-03-31T07:53:04.173Z,0.80
2023-03-31T07:54:04.178Z,0.70
2023-03-31T07:55:04.175Z,0.70
2023-03-31T07:56:04.470Z,0.80
2023-03-31T07:57:04.269Z,0.70
2023-03-31T07:58:04.169Z,0.60
2023-03-31T07:59:04.209Z,0.60
2023-03-31T08:00:04.163Z,0.70
2023-03-31T08:01:04.455Z,0.70
2023-03-31T08:02:04.188Z,0.70
2023-03-31T08:03:04.207Z,0.60
2023-03-31T08:04:04.305Z,0.70
2023-03-31T08:05:04.170Z,0.60
2023-03-31T08:06:04.221Z,0.70
2023-03-31T08:07:04.177Z,0.80
2023-03-31T08:08:04.166Z,0.70
2023-03-31T08:09:04.172Z,0.70
2023-03-31T08:10:04.312Z,0.60
2023-03-31T08:11:04.373Z,0.70
2023-03-31T08:12:04.169Z,0.70
2023-03-31T08:13:04.175Z,0.70
2023-03-31T08:14:04.185Z,0.70
2023-03-31T08:15:04.171Z,0.60
2023-03-31T08:16:04.507Z,0.70
2023-03-31T08:17:04.168Z,0.60
2023-03-31T08:18:04.240Z,0.50
2023-03-31T08:19:04.168Z,0.50
2023-03-31T08:20:07.524Z,0.70
2023-03-31T08:21:04.334Z,0.70
2023-03-31T08:22:04.216Z,0.60
2023-03-31T08:23:04.166Z,0.80
2023-03-31T08:24:04.159Z,0.70
2023-03-31T08:25:04.168Z,0.70
2023-03-31T08:26:04.383Z,0.50
2023-03-31T08:27:04.475Z,0.70
2023-03-31T08:28:04.159Z,0.70
2023-03-31T08:29:04.171Z,0.60
2023-03-31T08:30:04.209Z,0.80
2023-03-31T08:31:04.171Z,0.60
2023-03-31T08:32:04.255Z,0.80
2023-03-31T08:33:04.246Z,0.70
2023-03-31T08:34:04.159Z,0.60
2023-03-31T08:35:04.166Z,0.60
2023-03-31T08:36:04.252Z,0.60
2023-03-31T08:37:05.731Z,0.50
2023-03-31T08:38:04.182Z,0.70
2023-03-31T08:39:04.163Z,0.70
2023-03-31T08:40:04.156Z,0.80
2023-03-31T08:41:04.170Z,0.60
2023-03-31T08:42:04.157Z,0.70
2023-03-31T08:43:04.163Z,0.70
2023-03-31T08:44:04.161Z,0.70
2023-03-31T08:45:04.167Z,0.80
2023-03-31T08:46:04.467Z,0.60
2023-03-31T08:47:04.162Z,0.70
2023-03-31T08:48:07.028Z,0.70
2023-03-31T08:49:04.180Z,0.80
2023-03-31T08:50:04.157Z,0.60
2023-03-31T08:51:04.438Z,0.60
2023-03-31T08:52:04.156Z,0.60
2023-03-31T08:53:04.162Z,0.60
2023-03-31T08:54:04.225Z,0.60
2023-03-31T08:55:04.158Z,0.60
2023-03-31T08:56:04.338Z,0.60
2023-03-31T08:57:04.190Z,0.80
2023-03-31T08:58:04.156Z,0.50
2023-03-31T08:59:04.180Z,0.70
2023-03-31T09:00:04.155Z,0.70
2023-03-31T09:01:04.275Z,0.60
2023-03-31T09:02:04.208Z,0.80
2023-03-31T09:03:06.550Z,0.70
2023-03-31T09:04:06.390Z,0.90
2023-03-31T09:05:04.159Z,0.80
2023-03-31T09:06:04.165Z,0.80
2023-03-31T09:07:04.158Z,0.70
2023-03-31T09:08:04.150Z,0.80
2023-03-31T09:09:04.169Z,0.70
2023-03-31T09:10:04.192Z,0.70
2023-03-31T09:11:04.156Z,0.80
2023-03-31T09:12:04.153Z,0.60
2023-03-31T09:13:04.162Z,0.70
2023-03-31T09:14:04.150Z,1.00
2023-03-31T09:15:04.158Z,0.60
2023-03-31T09:16:04.326Z,0.70
2023-03-31T09:17:04.193Z,0.70
2023-03-31T09:18:04.182Z,0.70
2023-03-31T09:19:04.160Z,0.70
2023-03-31T09:20:04.149Z,0.60
2023-03-31T09:21:04.391Z,0.70
2023-03-31T09:22:04.147Z,0.70
2023-03-31T09:23:04.151Z,0.70
2023-03-31T09:24:04.183Z,0.70
2023-03-31T09:25:04.156Z,0.60
2023-03-31T09:26:04.513Z,0.80
2023-03-31T09:27:04.185Z,0.60
2023-03-31T09:28:04.146Z,0.60
2023-03-31T09:29:04.152Z,0.60
2023-03-31T09:30:04.146Z,0.70
2023-03-31T09:31:04.171Z,0.60
2023-03-31T09:32:04.158Z,0.70
2023-03-31T09:33:04.234Z,0.70
2023-03-31T09:34:04.146Z,0.60
2023-03-31T09:35:04.151Z,0.50
2023-03-31T09:36:04.267Z,0.70
2023-03-31T09:37:04.156Z,0.70
2023-03-31T09:38:04.156Z,0.60
2023-03-31T09:39:04.156Z,0.60
2023-03-31T09:40:04.148Z,0.60
2023-03-31T09:41:04.156Z,0.70
2023-03-31T09:42:04.189Z,0.60
2023-03-31T09:43:04.150Z,0.70
2023-03-31T09:44:04.144Z,0.90
2023-03-31T09:45:04.149Z,0.80
2023-03-31T09:46:15.136Z,0.60
2023-03-31T09:47:04.206Z,0.60
2023-03-31T09:48:04.226Z,0.70
2023-03-31T09:49:04.155Z,0.50
2023-03-31T09:50:04.146Z,0.80
2023-03-31T09:51:04.148Z,0.80
2023-03-31T09:52:04.144Z,0.50
2023-03-31T09:53:04.157Z,0.40
2023-03-31T09:54:04.152Z,0.70
2023-03-31T09:55:04.150Z,0.70
2023-03-31T09:56:04.518Z,0.60
2023-03-31T09:57:04.184Z,0.70
2023-03-31T09:58:04.162Z,0.80
2023-03-31T09:59:04.168Z,0.60
2023-03-31T10:00:04.138Z,0.60
2023-03-31T10:01:04.418Z,0.60
2023-03-31T10:02:04.190Z,0.60
2023-03-31T10:03:04.211Z,0.70
2023-03-31T10:04:04.212Z,0.70
2023-03-31T10:05:04.144Z,0.70
2023-03-31T10:06:04.139Z,0.50
2023-03-31T10:07:04.166Z,0.60
2023-03-31T10:08:04.137Z,0.50
2023-03-31T10:09:04.145Z,0.60
2023-03-31T10:10:04.138Z,0.70
2023-03-31T10:11:04.288Z,0.50
2023-03-31T10:12:04.137Z,0.80
2023-03-31T10:13:04.145Z,0.70
2023-03-31T10:14:04.173Z,0.60
2023-03-31T10:15:04.153Z,0.60
2023-03-31T10:16:04.211Z,0.50
2023-03-31T10:17:04.145Z,0.70
2023-03-31T10:18:04.149Z,0.50
2023-03-31T10:19:04.146Z,0.60
2023-03-31T10:20:04.193Z,0.70
2023-03-31T10:21:04.315Z,0.60
2023-03-31T10:22:04.135Z,0.60
2023-03-31T10:23:04.748Z,0.50
2023-03-31T10:24:04.135Z,0.70
2023-03-31T10:25:04.147Z,0.50
2023-03-31T10:26:04.138Z,0.60
2023-03-31T10:27:04.141Z,0.80
2023-03-31T10:28:04.134Z,0.60
2023-03-31T10:29:04.141Z,0.70
2023-03-31T10:30:04.166Z,0.60
2023-03-31T10:31:04.332Z,0.80
2023-03-31T10:32:04.138Z,0.60
2023-03-31T10:33:15.100Z,0.50
2023-03-31T10:34:04.132Z,0.60
2023-03-31T10:35:04.137Z,0.70
2023-03-31T10:36:04.155Z,0.70
2023-03-31T10:37:04.137Z,0.60
2023-03-31T10:38:06.110Z,0.60
2023-03-31T10:39:04.136Z,0.70
2023-03-31T10:40:04.129Z,0.60
2023-03-31T10:41:04.338Z,0.50
2023-03-31T10:42:04.139Z,0.50
2023-03-31T10:43:04.134Z,0.40
2023-03-31T10:44:04.137Z,0.40
2023-03-31T10:45:04.135Z,0.50
2023-03-31T10:46:04.160Z,0.50
2023-03-31T10:47:04.208Z,0.60
2023-03-31T10:48:04.225Z,0.60
2023-03-31T10:49:04.134Z,0.60
2023-03-31T10:50:04.129Z,0.40
2023-03-31T10:51:04.326Z,0.40
2023-03-31T10:52:04.126Z,0.50
2023-03-31T10:53:04.135Z,0.40
2023-03-31T10:54:04.139Z,0.40
2023-03-31T10:55:04.136Z,0.50
2023-03-31T10:56:04.126Z,0.40
2023-03-31T10:57:04.145Z,0.40
2023-03-31T10:58:04.129Z,0.40
2023-03-31T10:59:06.328Z,0.30
2023-03-31T11:00:04.128Z,0.30
2023-03-31T11:01:04.201Z,0.40
2023-03-31T11:02:04.198Z,0.40
2023-03-31T11:03:04.232Z,0.40
2023-03-31T11:04:04.226Z,0.30
2023-03-31T11:05:04.136Z,0.30
2023-03-31T11:06:04.129Z,0.40
2023-03-31T11:07:04.137Z,0.40
2023-03-31T11:08:04.137Z,0.30
2023-03-31T11:09:04.151Z,0.40
2023-03-31T11:10:04.279Z,0.30
2023-03-31T11:11:04.288Z,0.20
2023-03-31T11:12:04.143Z,0.30
2023-03-31T11:13:04.138Z,0.30
2023-03-31T11:14:04.135Z,0.30
2023-03-31T11:15:04.138Z,0.30
2023-03-31T11:16:04.207Z,0.20
2023-03-31T11:17:04.210Z,0.30
2023-03-31T11:18:04.222Z,0.20
2023-03-31T11:19:04.140Z,0.30
2023-03-31T11:20:04.133Z,0.30
2023-03-31T11:21:04.263Z,0.40
2023-03-31T11:22:04.145Z,0.40
2023-03-31T11:23:04.139Z,0.30
2023-03-31T11:24:04.138Z,0.30
2023-03-31T11:25:04.135Z,0.30
2023-03-31T11:26:04.129Z,0.30
2023-03-31T11:27:04.145Z,0.30
2023-03-31T11:28:04.134Z,0.30
2023-03-31T11:29:04.136Z,0.40
2023-03-31T11:30:04.127Z,0.30
2023-03-31T11:31:04.495Z,0.20
2023-03-31T11:32:04.162Z,0.20
2023-03-31T11:33:04.212Z,0.40
2023-03-31T11:34:04.165Z,0.30
2023-03-31T11:35:04.136Z,0.40
2023-03-31T11:36:04.161Z,0.40
2023-03-31T11:37:04.134Z,0.30
2023-03-31T11:38:04.136Z,0.30
2023-03-31T11:39:04.134Z,0.30
2023-03-31T11:40:04.134Z,0.30
2023-03-31T11:41:04.348Z,0.40
2023-03-31T11:42:04.129Z,0.40
2023-03-31T11:43:04.135Z,0.30
2023-03-31T11:44:04.126Z,0.30
2023-03-31T11:45:04.139Z,0.40
2023-03-31T11:46:04.360Z,0.30
2023-03-31T11:47:04.135Z,0.40
2023-03-31T11:48:06.231Z,0.40
2023-03-31T11:49:04.136Z,0.40
2023-03-31T11:50:04.156Z,0.30
2023-03-31T11:51:04.141Z,0.40
2023-03-31T11:52:04.131Z,0.40
2023-03-31T11:53:04.187Z,0.40
2023-03-31T11:54:04.128Z,0.30
2023-03-31T11:55:04.147Z,0.40
2023-03-31T11:56:04.253Z,0.30
2023-03-31T11:57:04.172Z,0.60
2023-03-31T11:58:04.135Z,0.40
2023-03-31T11:59:04.143Z,0.40
2023-03-31T12:00:04.132Z,0.40
2023-03-31T12:01:04.134Z,0.50
2023-03-31T12:02:04.128Z,0.40
2023-03-31T12:03:04.239Z,0.50
2023-03-31T12:04:04.205Z,0.50
2023-03-31T12:05:04.148Z,0.40
2023-03-31T12:06:04.530Z,0.40
2023-03-31T12:07:04.131Z,0.40
2023-03-31T12:08:04.141Z,0.40
2023-03-31T12:09:04.126Z,0.40
2023-03-31T12:10:04.132Z,0.40
2023-03-31T12:11:04.129Z,0.40
2023-03-31T12:12:04.132Z,0.30
2023-03-31T12:13:04.129Z,0.40
2023-03-31T12:14:04.134Z,0.50
2023-03-31T12:15:04.125Z,0.40
2023-03-31T12:16:04.403Z,0.30
2023-03-31T12:17:04.129Z,0.50
2023-03-31T12:18:04.210Z,0.40
2023-03-31T12:19:04.124Z,0.40
2023-03-31T12:20:04.133Z,0.30
2023-03-31T12:21:04.126Z,0.40
2023-03-31T12:22:04.166Z,0.30
2023-03-31T12:23:04.141Z,0.30
2023-03-31T12:24:05.033Z,0.50
2023-03-31T12:25:04.129Z,0.40
2023-03-31T12:26:04.425Z,0.30
2023-03-31T12:27:04.132Z,0.30
2023-03-31T12:28:04.144Z,0.30
2023-03-31T12:29:04.134Z,0.30
2023-03-31T12:30:04.133Z,0.30
2023-03-31T12:31:04.168Z,0.20
2023-03-31T12:32:04.131Z,0.30
2023-03-31T12:33:04.161Z,0.30
2023-03-31T12:34:04.132Z,0.20
2023-03-31T12:35:04.137Z,0.20
2023-03-31T12:36:04.460Z,0.30
2023-03-31T12:37:04.123Z,0.20
2023-03-31T12:38:04.168Z,0.20
2023-03-31T12:39:04.126Z,0.20
2023-03-31T12:40:04.132Z,0.20
2023-03-31T12:41:04.126Z,0.20
2023-03-31T12:42:04.132Z,0.20
2023-03-31T12:43:04.122Z,0.20
2023-03-31T12:44:04.132Z,0.20
2023-03-31T12:45:04.124Z,0.20
2023-03-31T12:46:04.275Z,0.10
2023-03-31T12:47:04.244Z,0.10
2023-03-31T12:48:04.227Z,0.20
2023-03-31T12:49:04.122Z,0.20
2023-03-31T12:50:04.139Z,0.20
2023-03-31T12:51:04.302Z,0.20
2023-03-31T12:52:04.130Z,0.20
2023-03-31T12:53:04.152Z,0.10
2023-03-31T12:54:04.166Z,0.20
2023-03-31T12:55:04.151Z,0.20
2023-03-31T12:56:04.284Z,0.10
2023-03-31T12:57:04.136Z,0.10
2023-03-31T12:58:04.129Z,0.20
2023-03-31T12:59:04.132Z,0.20
2023-03-31T13:00:04.162Z,0.10
2023-03-31T13:01:04.241Z,0.20
2023-03-31T13:02:04.144Z,0.20
2023-03-31T13:03:04.145Z,0.20
2023-03-31T13:04:04.130Z,0.20
2023-03-31T13:05:04.124Z,0.20
2023-03-31T13:06:04.130Z,0.20
2023-03-31T13:07:09.382Z,0.10
2023-03-31T13:08:04.127Z,0.20
2023-03-31T13:09:04.119Z,0.20
2023-03-31T13:10:04.154Z,0.20
2023-03-31T13:11:04.217Z,0.20
2023-03-31T13:12:04.127Z,0.20
2023-03-31T13:13:04.126Z,0.20
2023-03-31T13:14:04.126Z,0.20
2023-03-31T13:15:04.136Z,0.20
2023-03-31T13:16:04.128Z,0.20
2023-03-31T13:17:04.137Z,0.20
2023-03-31T13:18:04.224Z,0.20